createdAt,value
2022-11-16T00:00:10.610Z,993.2
2022-11-16T00:01:28.331Z,993.2
2022-11-16T00:02:46.326Z,993.2
2022-11-16T00:04:03.227Z,993.2
2022-11-16T00:05:23.105Z,993.2
2022-11-16T00:06:37.198Z,993.2
2022-11-16T00:07:54.223Z,993.1
2022-11-16T00:09:11.202Z,993.1
2022-11-16T00:10:28.227Z,993.1
2022-11-16T00:11:45.229Z,993.1
2022-11-16T00:13:02.196Z,993.1
2022-11-16T00:14:19.233Z,993.1
2022-11-16T00:15:36.242Z,993.1
2022-11-16T00:16:53.308Z,993
2022-11-16T00:18:10.225Z,993
2022-11-16T00:19:27.241Z,993
2022-11-16T00:20:44.291Z,993
2022-11-16T00:22:01.294Z,993
2022-11-16T00:23:18.219Z,993
2022-11-16T00:24:35.331Z,993
2022-11-16T00:25:52.262Z,992.9
2022-11-16T00:27:09.244Z,993
2022-11-16T00:28:26.231Z,992.9
2022-11-16T00:29:43.312Z,992.9
2022-11-16T00:31:00.235Z,992.9
2022-11-16T00:32:17.271Z,992.9
2022-11-16T00:33:34.244Z,992.9
2022-11-16T00:34:51.276Z,992.9
2022-11-16T00:36:08.244Z,992.9
2022-11-16T00:37:25.241Z,992.8
2022-11-16T00:38:42.238Z,992.9
2022-11-16T00:39:59.314Z,992.9
2022-11-16T00:41:16.279Z,992.9
2022-11-16T00:42:33.272Z,992.8
2022-11-16T00:43:50.240Z,992.8
2022-11-16T00:45:07.276Z,992.8
2022-11-16T00:46:24.253Z,992.8
2022-11-16T00:47:41.276Z,992.8
2022-11-16T00:48:58.265Z,992.8
2022-11-16T00:50:15.258Z,992.8
2022-11-16T00:51:32.287Z,992.9
2022-11-16T00:52:49.281Z,992.9
2022-11-16T00:54:06.270Z,992.9
2022-11-16T00:55:23.274Z,992.9
2022-11-16T00:56:40.307Z,992.9
2022-11-16T00:57:58.416Z,992.9
2022-11-16T00:59:15.280Z,992.9
2022-11-16T01:00:32.287Z,993
2022-11-16T01:01:49.409Z,993
2022-11-16T01:03:06.312Z,992.9
2022-11-16T01:04:23.301Z,992.9
2022-11-16T01:05:40.360Z,992.9
2022-11-16T01:06:57.313Z,992.9
2022-11-16T01:08:14.295Z,992.8
2022-11-16T01:09:31.313Z,992.8
2022-11-16T01:10:48.342Z,992.8
2022-11-16T01:12:05.329Z,992.8
2022-11-16T01:13:22.321Z,992.8
2022-11-16T01:14:39.285Z,992.8
2022-11-16T01:15:56.555Z,992.7
2022-11-16T01:17:14.330Z,992.7
2022-11-16T01:18:31.709Z,992.7
2022-11-16T01:19:48.378Z,992.6
2022-11-16T01:21:05.305Z,992.6
2022-11-16T01:22:22.309Z,992.6
2022-11-16T01:23:39.319Z,992.6
2022-11-16T01:24:56.344Z,992.6
2022-11-16T01:26:13.343Z,992.6
2022-11-16T01:27:30.351Z,992.6
2022-11-16T01:28:47.344Z,992.6
2022-11-16T01:30:04.372Z,992.6
2022-11-16T01:31:21.354Z,992.6
2022-11-16T01:32:38.347Z,992.6
2022-11-16T01:33:55.323Z,992.5
2022-11-16T01:35:12.332Z,992.6
2022-11-16T01:36:29.353Z,992.6
2022-11-16T01:37:46.375Z,992.6
2022-11-16T01:39:03.339Z,992.6
2022-11-16T01:40:20.330Z,992.6
2022-11-16T01:41:37.330Z,992.6
2022-11-16T01:42:54.367Z,992.5
2022-11-16T01:44:11.365Z,992.5
2022-11-16T01:45:28.343Z,992.4
2022-11-16T01:46:45.385Z,992.5
2022-11-16T01:48:02.434Z,992.5
2022-11-16T01:49:19.355Z,992.5
2022-11-16T01:50:36.375Z,992.5
2022-11-16T01:51:53.327Z,992.5
2022-11-16T01:53:10.374Z,992.5
2022-11-16T01:54:27.358Z,992.5
2022-11-16T01:55:44.377Z,992.4
2022-11-16T01:57:01.453Z,992.4
2022-11-16T01:58:18.357Z,992.4
2022-11-16T01:59:35.384Z,992.3
2022-11-16T02:00:52.415Z,992.3
2022-11-16T02:02:09.389Z,992.3
2022-11-16T02:03:26.365Z,992.2
2022-11-16T02:04:43.303Z,992.2
2022-11-16T02:06:00.316Z,992.3
2022-11-16T02:07:17.347Z,992.2
2022-11-16T02:08:34.527Z,992.2
2022-11-16T02:09:51.239Z,992.2
2022-11-16T02:11:08.252Z,992.2
2022-11-16T02:12:25.285Z,992.1
2022-11-16T02:13:42.263Z,992.1
2022-11-16T02:14:59.296Z,992.1
2022-11-16T02:16:16.278Z,992.2
2022-11-16T02:17:33.325Z,992.1
2022-11-16T02:18:50.265Z,992.1
2022-11-16T02:20:07.263Z,992.2
2022-11-16T02:21:24.262Z,992.2
2022-11-16T02:22:41.291Z,992.1
2022-11-16T02:23:58.289Z,992.1
2022-11-16T02:25:15.276Z,992.1
2022-11-16T02:26:32.278Z,992.1
2022-11-16T02:27:49.309Z,992.2
2022-11-16T02:29:06.295Z,992.2
2022-11-16T02:30:23.299Z,992.1
2022-11-16T02:31:40.280Z,992.2
2022-11-16T02:32:57.274Z,992.2
2022-11-16T02:34:14.307Z,992.1
2022-11-16T02:35:31.279Z,992.1
2022-11-16T02:36:48.275Z,992.1
2022-11-16T02:38:05.282Z,992.1
2022-11-16T02:39:22.324Z,992.1
2022-11-16T02:40:39.291Z,992.1
2022-11-16T02:41:56.293Z,992
2022-11-16T02:43:13.296Z,992
2022-11-16T02:44:30.313Z,992.1
2022-11-16T02:45:47.328Z,992.1
2022-11-16T02:47:04.298Z,992.1
2022-11-16T02:48:21.335Z,992.1
2022-11-16T02:49:38.334Z,992
2022-11-16T02:50:55.314Z,992
2022-11-16T02:52:12.338Z,992
2022-11-16T02:53:29.318Z,992.1
2022-11-16T02:54:46.386Z,992.1
2022-11-16T02:56:03.310Z,992.1
2022-11-16T02:57:20.311Z,992.1
2022-11-16T02:58:37.316Z,992.1
2022-11-16T02:59:54.343Z,992.1
2022-11-16T03:01:11.403Z,992.1
2022-11-16T03:02:28.364Z,992.1
2022-11-16T03:03:45.326Z,992.2
2022-11-16T03:05:02.372Z,992.2
2022-11-16T03:06:19.325Z,992.1
2022-11-16T03:07:36.384Z,992.2
2022-11-16T03:08:53.341Z,992.2
2022-11-16T03:10:10.334Z,992.1
2022-11-16T03:11:27.334Z,992.1
2022-11-16T03:12:44.367Z,992.1
2022-11-16T03:14:01.367Z,992.1
2022-11-16T03:15:18.363Z,992.2
2022-11-16T03:16:35.356Z,992.2
2022-11-16T03:17:52.347Z,992.2
2022-11-16T03:19:09.366Z,992.2
2022-11-16T03:20:26.405Z,992.3
2022-11-16T03:21:43.409Z,992.3
2022-11-16T03:23:00.333Z,992.2
2022-11-16T03:24:17.351Z,992.3
2022-11-16T03:25:34.377Z,992.2
2022-11-16T03:26:51.377Z,992.2
2022-11-16T03:28:08.350Z,992.2
2022-11-16T03:29:25.434Z,992.2
2022-11-16T03:30:42.408Z,992.2
2022-11-16T03:31:59.382Z,992.2
2022-11-16T03:33:16.359Z,992.2
2022-11-16T03:34:33.380Z,992.2
2022-11-16T03:35:50.383Z,992.1
2022-11-16T03:37:07.389Z,992.1
2022-11-16T03:38:24.375Z,992.1
2022-11-16T03:39:41.392Z,992.1
2022-11-16T03:40:58.482Z,992
2022-11-16T03:42:15.369Z,992
2022-11-16T03:43:32.364Z,992
2022-11-16T03:44:49.370Z,992
2022-11-16T03:46:06.432Z,992
2022-11-16T03:47:23.411Z,992
2022-11-16T03:48:40.415Z,992
2022-11-16T03:49:57.384Z,992
2022-11-16T03:51:14.416Z,991.9
2022-11-16T03:52:31.391Z,991.9
2022-11-16T03:53:48.394Z,991.9
2022-11-16T03:55:05.435Z,991.8
2022-11-16T03:56:22.456Z,991.8
2022-11-16T03:57:39.402Z,991.8
2022-11-16T03:58:56.422Z,991.7
2022-11-16T04:00:13.416Z,991.7
2022-11-16T04:01:30.512Z,991.7
2022-11-16T04:02:47.424Z,991.7
2022-11-16T04:04:04.400Z,991.7
2022-11-16T04:05:21.406Z,991.7
2022-11-16T04:06:38.436Z,991.7
2022-11-16T04:07:55.426Z,991.8
2022-11-16T04:09:12.404Z,991.7
2022-11-16T04:10:29.403Z,991.7
2022-11-16T04:11:46.440Z,991.7
2022-11-16T04:13:03.440Z,991.7
2022-11-16T04:14:20.416Z,991.7
2022-11-16T04:15:37.478Z,991.6
2022-11-16T04:16:54.412Z,991.7
2022-11-16T04:18:11.455Z,991.7
2022-11-16T04:19:28.414Z,991.7
2022-11-16T04:20:46.078Z,991.7
2022-11-16T04:22:03.434Z,991.6
2022-11-16T04:23:20.428Z,991.6
2022-11-16T04:24:37.434Z,991.6
2022-11-16T04:25:54.489Z,991.6
2022-11-16T04:27:11.444Z,991.6
2022-11-16T04:28:28.434Z,991.6
2022-11-16T04:29:45.443Z,991.6
2022-11-16T04:31:02.475Z,991.6
2022-11-16T04:32:19.501Z,991.5
2022-11-16T04:33:36.462Z,991.5
2022-11-16T04:34:53.446Z,991.5
2022-11-16T04:36:10.429Z,991.5
2022-11-16T04:37:27.500Z,991.5
2022-11-16T04:38:44.444Z,991.5
2022-11-16T04:40:01.579Z,991.5
2022-11-16T04:41:18.456Z,991.5
2022-11-16T04:42:35.532Z,991.5
2022-11-16T04:43:52.459Z,991.5
2022-11-16T04:45:09.492Z,991.5
2022-11-16T04:46:26.469Z,991.5
2022-11-16T04:47:43.505Z,991.5
2022-11-16T04:49:00.554Z,991.5
2022-11-16T04:50:17.627Z,991.5
2022-11-16T04:51:34.473Z,991.5
2022-11-16T04:52:51.466Z,991.6
2022-11-16T04:54:08.522Z,991.5
2022-11-16T04:55:25.486Z,991.6
2022-11-16T04:56:42.478Z,991.5
2022-11-16T04:57:59.480Z,991.5
2022-11-16T04:59:16.479Z,991.6
2022-11-16T05:00:33.551Z,991.6
2022-11-16T05:01:50.551Z,991.6
2022-11-16T05:03:07.481Z,991.6
2022-11-16T05:04:24.528Z,991.6
2022-11-16T05:05:41.640Z,991.6
2022-11-16T05:06:58.541Z,991.5
2022-11-16T05:08:15.502Z,991.5
2022-11-16T05:09:32.534Z,991.5
2022-11-16T05:10:49.540Z,991.5
2022-11-16T05:12:07.524Z,991.4
2022-11-16T05:13:24.513Z,991.4
2022-11-16T05:14:41.493Z,991.4
2022-11-16T05:15:58.557Z,991.4
2022-11-16T05:17:15.507Z,991.4
2022-11-16T05:18:32.889Z,991.4
2022-11-16T05:19:49.521Z,991.4
2022-11-16T05:21:06.535Z,991.4
2022-11-16T05:22:23.506Z,991.4
2022-11-16T05:23:40.534Z,991.3
2022-11-16T05:24:57.524Z,991.3
2022-11-16T05:26:14.643Z,991.4
2022-11-16T05:27:31.516Z,991.4
2022-11-16T05:28:48.510Z,991.4
2022-11-16T05:30:05.576Z,991.3
2022-11-16T05:31:22.537Z,991.3
2022-11-16T05:32:39.578Z,991.3
2022-11-16T05:33:56.524Z,991.2
2022-11-16T05:35:13.573Z,991.2
2022-11-16T05:36:30.586Z,991.2
2022-11-16T05:37:47.563Z,991.2
2022-11-16T05:39:04.533Z,991.2
2022-11-16T05:40:21.716Z,991.2
2022-11-16T05:41:38.542Z,991.2
2022-11-16T05:42:55.586Z,991.1
2022-11-16T05:44:12.525Z,991.2
2022-11-16T05:45:29.543Z,991.2
2022-11-16T05:46:46.533Z,991
2022-11-16T05:48:03.604Z,991.1
2022-11-16T05:49:20.563Z,991.1
2022-11-16T05:50:42.465Z,991.2
2022-11-16T05:51:54.566Z,991.2
2022-11-16T05:53:11.568Z,991.3
2022-11-16T05:54:28.616Z,991.3
2022-11-16T05:55:45.575Z,991.2
2022-11-16T05:57:02.536Z,991.2
2022-11-16T05:58:19.573Z,991.2
2022-11-16T05:59:36.582Z,991.2
2022-11-16T06:00:53.586Z,991.2
2022-11-16T06:02:10.690Z,991.2
2022-11-16T06:03:27.644Z,991.2
2022-11-16T06:04:44.655Z,991.2
2022-11-16T06:06:01.577Z,991.1
2022-11-16T06:07:18.677Z,991.1
2022-11-16T06:08:35.952Z,991.1
2022-11-16T06:09:52.618Z,991.1
2022-11-16T06:11:09.562Z,991.1
2022-11-16T06:12:26.566Z,991.1
2022-11-16T06:13:43.603Z,991.1
2022-11-16T06:15:00.647Z,991.1
2022-11-16T06:16:17.874Z,991.1
2022-11-16T06:17:34.579Z,991
2022-11-16T06:18:51.587Z,991
2022-11-16T06:20:08.655Z,991
2022-11-16T06:21:25.591Z,991
2022-11-16T06:22:42.584Z,991
2022-11-16T06:23:59.598Z,991
2022-11-16T06:25:16.986Z,991
2022-11-16T06:26:33.595Z,991
2022-11-16T06:27:50.579Z,991
2022-11-16T06:29:07.600Z,991
2022-11-16T06:30:24.818Z,991
2022-11-16T06:31:41.845Z,991
2022-11-16T06:32:58.627Z,991
2022-11-16T06:34:15.598Z,991
2022-11-16T06:35:32.645Z,991
2022-11-16T06:36:49.629Z,990.9
2022-11-16T06:38:06.624Z,990.9
2022-11-16T06:39:23.609Z,990.9
2022-11-16T06:40:40.650Z,990.9
2022-11-16T06:41:57.651Z,990.9
2022-11-16T06:43:14.721Z,990.9
2022-11-16T06:44:31.643Z,990.9
2022-11-16T06:45:48.618Z,990.9
2022-11-16T06:47:05.771Z,990.8
2022-11-16T06:48:22.708Z,990.8
2022-11-16T06:49:39.662Z,990.9
2022-11-16T06:50:56.628Z,990.8
2022-11-16T06:52:13.646Z,990.8
2022-11-16T06:53:30.650Z,990.8
2022-11-16T06:54:47.654Z,990.8
2022-11-16T06:56:04.729Z,990.9
2022-11-16T06:57:21.619Z,990.9
2022-11-16T06:58:40.738Z,990.9
2022-11-16T06:59:55.681Z,990.8
2022-11-16T07:01:12.763Z,990.8
2022-11-16T07:02:29.788Z,990.9
2022-11-16T07:03:46.675Z,990.9
2022-11-16T07:05:04.201Z,991
2022-11-16T07:06:20.684Z,990.9
2022-11-16T07:07:37.776Z,991
2022-11-16T07:08:54.645Z,991
2022-11-16T07:10:11.648Z,991
2022-11-16T07:11:28.736Z,991
2022-11-16T07:12:45.672Z,991
2022-11-16T07:14:02.751Z,991
2022-11-16T07:15:19.688Z,991
2022-11-16T07:16:36.757Z,990.9
2022-11-16T07:17:53.929Z,990.9
2022-11-16T07:19:10.662Z,991
2022-11-16T07:20:27.700Z,990.9
2022-11-16T07:21:44.732Z,990.9
2022-11-16T07:23:01.770Z,990.9
2022-11-16T07:24:18.670Z,990.9
2022-11-16T07:25:35.673Z,990.9
2022-11-16T07:26:52.785Z,990.9
2022-11-16T07:28:09.677Z,990.9
2022-11-16T07:29:26.702Z,990.9
2022-11-16T07:30:43.815Z,990.9
2022-11-16T07:32:00.744Z,991
2022-11-16T07:33:17.803Z,991
2022-11-16T07:34:34.766Z,990.9
2022-11-16T07:35:51.713Z,990.9
2022-11-16T07:37:08.698Z,991
2022-11-16T07:38:25.735Z,990.9
2022-11-16T07:39:42.741Z,990.9
2022-11-16T07:40:59.744Z,990.9
2022-11-16T07:42:16.714Z,990.9
2022-11-16T07:43:33.866Z,991
2022-11-16T07:44:50.721Z,990.9
2022-11-16T07:46:41.475Z,990.9
2022-11-16T07:47:24.722Z,991
2022-11-16T07:48:41.850Z,991
2022-11-16T07:49:58.757Z,990.9
2022-11-16T07:51:15.781Z,990.9
2022-11-16T07:52:32.746Z,990.9
2022-11-16T07:53:49.749Z,991
2022-11-16T07:55:06.770Z,991
2022-11-16T07:56:23.778Z,991
2022-11-16T07:57:40.707Z,991
2022-11-16T07:58:57.752Z,991.1
2022-11-16T08:00:14.752Z,991.1
2022-11-16T08:01:31.811Z,991.1
2022-11-16T08:02:48.807Z,991.1
2022-11-16T08:04:05.845Z,991
2022-11-16T08:05:22.788Z,991
2022-11-16T08:06:39.788Z,991
2022-11-16T08:07:56.990Z,991
2022-11-16T08:09:13.737Z,991.1
2022-11-16T08:10:30.871Z,991.1
2022-11-16T08:11:47.797Z,991.1
2022-11-16T08:13:05.271Z,991.1
2022-11-16T08:14:21.739Z,991.1
2022-11-16T08:15:38.791Z,991.1
2022-11-16T08:16:55.831Z,991.1
2022-11-16T08:18:12.777Z,991.1
2022-11-16T08:19:29.899Z,991.2
2022-11-16T08:20:46.790Z,991.1
2022-11-16T08:22:03.827Z,991.1
2022-11-16T08:23:20.761Z,991.1
2022-11-16T08:24:37.777Z,991.1
2022-11-16T08:25:54.780Z,991.1
2022-11-16T08:27:11.810Z,991.2
2022-11-16T08:28:28.789Z,991.2
2022-11-16T08:29:46.196Z,991.1
2022-11-16T08:31:02.970Z,991.1
2022-11-16T08:32:19.763Z,991.1
2022-11-16T08:33:36.789Z,991.1
2022-11-16T08:34:54.115Z,991.1
2022-11-16T08:36:13.916Z,991.1
2022-11-16T08:37:27.989Z,991.1
2022-11-16T08:38:44.808Z,991.1
2022-11-16T08:40:01.897Z,991.1
2022-11-16T08:41:18.799Z,991.1
2022-11-16T08:42:39.473Z,991.1
2022-11-16T08:43:52.784Z,991.1
2022-11-16T08:45:09.787Z,991.1
2022-11-16T08:46:26.807Z,991.1
2022-11-16T08:47:43.861Z,991.1
2022-11-16T08:49:00.786Z,991.1
2022-11-16T08:50:17.862Z,991.1
2022-11-16T08:51:34.800Z,991.1
2022-11-16T08:52:51.908Z,991.1
2022-11-16T08:54:08.836Z,991.1
2022-11-16T08:55:25.833Z,991.1
2022-11-16T08:56:42.815Z,991.1
2022-11-16T08:57:59.793Z,991.1
2022-11-16T08:59:16.907Z,991.2
2022-11-16T09:00:34.012Z,991.2
2022-11-16T09:01:50.918Z,991.2
2022-11-16T09:03:08.026Z,991.2
2022-11-16T09:04:24.937Z,991.2
2022-11-16T09:05:41.870Z,991.3
2022-11-16T09:06:58.871Z,991.3
2022-11-16T09:08:15.849Z,991.3
2022-11-16T09:09:32.915Z,991.3
2022-11-16T09:10:49.843Z,991.3
2022-11-16T09:12:06.948Z,991.3
2022-11-16T09:13:23.842Z,991.3
2022-11-16T09:14:40.891Z,991.4
2022-11-16T09:15:57.847Z,991.3
2022-11-16T09:17:18.875Z,991.3
2022-11-16T09:18:32.199Z,991.4
2022-11-16T09:19:48.866Z,991.4
2022-11-16T09:21:06.127Z,991.4
2022-11-16T09:22:22.832Z,991.4
2022-11-16T09:23:39.880Z,991.4
2022-11-16T09:24:56.867Z,991.4
2022-11-16T09:26:13.845Z,991.4
2022-11-16T09:27:30.854Z,991.4
2022-11-16T09:28:47.854Z,991.4
2022-11-16T09:30:05.029Z,991.4
2022-11-16T09:31:23.510Z,991.4
2022-11-16T09:32:39.073Z,991.5
2022-11-16T09:33:55.879Z,991.4
2022-11-16T09:35:13.472Z,991.4
2022-11-16T09:36:30.904Z,991.4
2022-11-16T09:37:47.862Z,991.4
2022-11-16T09:40:21.925Z,991.4
2022-11-16T09:41:38.931Z,991.4
2022-11-16T09:42:55.875Z,991.4
2022-11-16T09:44:12.908Z,991.4
2022-11-16T09:45:29.878Z,991.3
2022-11-16T09:46:46.915Z,991.3
2022-11-16T09:48:03.910Z,991.4
2022-11-16T09:49:20.878Z,991.4
2022-11-16T09:50:37.917Z,991.3
2022-11-16T09:51:54.946Z,991.3
2022-11-16T09:53:12.079Z,991.3
2022-11-16T09:54:28.933Z,991.3
2022-11-16T09:55:45.973Z,991.3
2022-11-16T09:57:05.599Z,991.3
2022-11-16T09:58:19.926Z,991.3
2022-11-16T09:59:38.029Z,991.3
2022-11-16T10:00:55.024Z,991.3
2022-11-16T10:02:12.007Z,991.3
2022-11-16T10:03:28.915Z,991.3
2022-11-16T10:04:45.920Z,991.3
2022-11-16T10:06:03.034Z,991.2
2022-11-16T10:07:20.124Z,991.2
2022-11-16T10:08:37.005Z,991.2
2022-11-16T10:09:53.897Z,991.1
2022-11-16T10:11:10.914Z,991
2022-11-16T10:12:28.056Z,991
2022-11-16T10:13:44.956Z,991
2022-11-16T10:15:02.057Z,991
2022-11-16T10:16:18.923Z,990.9
2022-11-16T10:17:35.931Z,990.9
2022-11-16T10:18:52.957Z,990.9
2022-11-16T10:20:09.950Z,990.8
2022-11-16T10:21:26.914Z,990.8
2022-11-16T10:22:44.026Z,990.7
2022-11-16T10:24:00.980Z,990.7
2022-11-16T10:25:17.938Z,990.7
2022-11-16T10:26:34.978Z,990.7
2022-11-16T10:27:51.940Z,990.7
2022-11-16T10:29:08.991Z,990.7
2022-11-16T10:30:25.953Z,990.7
2022-11-16T10:31:42.924Z,990.7
2022-11-16T10:32:59.993Z,990.7
2022-11-16T10:34:16.961Z,990.7
2022-11-16T10:35:33.961Z,990.6
2022-11-16T10:36:50.940Z,990.7
2022-11-16T10:38:08.060Z,990.6
2022-11-16T10:39:24.996Z,990.6
2022-11-16T10:40:41.972Z,990.6
2022-11-16T10:42:02.058Z,990.5
2022-11-16T10:43:15.991Z,990.6
2022-11-16T10:44:32.982Z,990.6
2022-11-16T10:45:50.124Z,990.6
2022-11-16T10:47:06.983Z,990.6
2022-11-16T10:48:24.228Z,990.6
2022-11-16T10:49:41.005Z,990.7
2022-11-16T10:50:58.006Z,990.6
2022-11-16T10:52:14.955Z,990.6
2022-11-16T10:53:32.314Z,990.6
2022-11-16T10:54:48.957Z,990.6
2022-11-16T10:56:06.030Z,990.6
2022-11-16T10:57:23.062Z,990.6
2022-11-16T10:58:39.976Z,990.6
2022-11-16T10:59:56.976Z,990.6
2022-11-16T11:01:14.057Z,990.5
2022-11-16T11:02:31.063Z,990.5
2022-11-16T11:03:48.040Z,990.5
2022-11-16T11:05:05.017Z,990.5
2022-11-16T11:06:22.061Z,990.6
2022-11-16T11:07:39.068Z,990.5
2022-11-16T11:08:56.121Z,990.5
2022-11-16T11:10:13.022Z,990.5
2022-11-16T11:11:30.091Z,990.5
2022-11-16T11:12:46.995Z,990.5
2022-11-16T11:14:04.141Z,990.5
2022-11-16T11:15:25.471Z,990.5
2022-11-16T11:16:38.035Z,990.5
2022-11-16T11:17:55.039Z,990.5
2022-11-16T11:19:12.081Z,990.5
2022-11-16T11:20:29.030Z,990.6
2022-11-16T11:21:46.978Z,990.6
2022-11-16T11:23:04.032Z,990.6
2022-11-16T11:24:45.592Z,990.6
2022-11-16T11:25:38.033Z,990.6
2022-11-16T11:26:55.035Z,990.6
2022-11-16T11:28:12.018Z,990.6
2022-11-16T11:29:29.059Z,990.6
2022-11-16T11:30:46.157Z,990.6
2022-11-16T11:32:03.079Z,990.6
2022-11-16T11:33:20.069Z,990.6
2022-11-16T11:34:37.173Z,990.6
2022-11-16T11:35:54.047Z,990.6
2022-11-16T11:37:11.194Z,990.6
2022-11-16T11:38:28.232Z,990.6
2022-11-16T11:39:45.092Z,990.6
2022-11-16T11:41:02.026Z,990.6
2022-11-16T11:42:19.027Z,990.6
2022-11-16T11:43:36.383Z,990.5
2022-11-16T11:44:53.031Z,990.5
2022-11-16T11:46:10.135Z,990.5
2022-11-16T11:48:44.065Z,990.4
2022-11-16T11:50:01.053Z,990.5
2022-11-16T11:51:18.063Z,990.4
2022-11-16T11:52:35.137Z,990.4
2022-11-16T11:53:52.094Z,990.4
2022-11-16T11:55:09.301Z,990.4
2022-11-16T11:56:26.137Z,990.4
2022-11-16T11:57:43.072Z,990.4
2022-11-16T11:59:00.080Z,990.3
2022-11-16T12:00:17.211Z,990.3
2022-11-16T12:01:34.121Z,990.3
2022-11-16T12:02:51.200Z,990.3
2022-11-16T12:04:08.178Z,990.2
2022-11-16T12:05:25.262Z,990.1
2022-11-16T12:06:44.050Z,990.1
2022-11-16T12:07:59.062Z,990.2
2022-11-16T12:09:16.156Z,990.2
2022-11-16T12:10:33.091Z,990.1
2022-11-16T12:11:50.229Z,990.2
2022-11-16T12:13:07.068Z,990.2
2022-11-16T12:14:24.134Z,990.2
2022-11-16T12:15:41.101Z,990.2
2022-11-16T12:16:58.145Z,990.2
2022-11-16T12:18:15.081Z,990.2
2022-11-16T12:19:32.129Z,990.2
2022-11-16T12:20:49.270Z,990.2
2022-11-16T12:22:06.269Z,990.2
2022-11-16T12:23:23.157Z,990.2
2022-11-16T12:24:40.146Z,990.2
2022-11-16T12:25:57.132Z,990.2
2022-11-16T12:27:14.095Z,990.2
2022-11-16T12:28:31.134Z,990.2
2022-11-16T12:29:48.095Z,990.1
2022-11-16T12:31:05.117Z,990.1
2022-11-16T12:32:22.099Z,990.1
2022-11-16T12:33:39.092Z,990.1
2022-11-16T12:34:56.114Z,990.1
2022-11-16T12:36:13.160Z,990.1
2022-11-16T12:37:30.136Z,990
2022-11-16T12:38:47.099Z,990
2022-11-16T12:40:04.167Z,990
2022-11-16T12:41:21.217Z,990
2022-11-16T12:42:38.292Z,990
2022-11-16T12:43:55.105Z,990
2022-11-16T12:45:12.131Z,990
2022-11-16T12:46:29.134Z,990
2022-11-16T12:47:46.184Z,990
2022-11-16T12:49:03.211Z,990
2022-11-16T12:50:20.155Z,990
2022-11-16T12:51:37.179Z,990
2022-11-16T12:52:54.189Z,990
2022-11-16T12:54:11.128Z,990
2022-11-16T12:55:28.536Z,990
2022-11-16T12:56:48.817Z,990
2022-11-16T12:58:02.185Z,990
2022-11-16T12:59:19.127Z,990
2022-11-16T13:00:36.203Z,990
2022-11-16T13:01:56.336Z,990
2022-11-16T13:03:10.131Z,990
2022-11-16T13:04:27.145Z,990
2022-11-16T13:05:44.175Z,990
2022-11-16T13:07:02.560Z,989.9
2022-11-16T13:08:18.166Z,989.9
2022-11-16T13:09:35.146Z,990
2022-11-16T13:10:52.198Z,989.9
2022-11-16T13:12:09.244Z,989.9
2022-11-16T13:13:41.627Z,989.9
2022-11-16T13:14:43.154Z,989.9
2022-11-16T13:16:00.168Z,989.9
2022-11-16T13:17:17.179Z,989.9
2022-11-16T13:18:34.186Z,989.9
2022-11-16T13:19:51.161Z,989.9
2022-11-16T13:21:08.254Z,989.9
2022-11-16T13:22:25.240Z,989.9
2022-11-16T13:23:42.197Z,989.9
2022-11-16T13:24:59.175Z,989.9
2022-11-16T13:26:16.259Z,990
2022-11-16T13:27:33.211Z,989.9
2022-11-16T13:28:50.311Z,990
2022-11-16T13:30:07.253Z,990
2022-11-16T13:31:24.172Z,990
2022-11-16T13:32:41.209Z,990
2022-11-16T13:33:58.210Z,989.9
2022-11-16T13:35:15.223Z,989.9
2022-11-16T13:36:32.178Z,990
2022-11-16T13:37:49.185Z,990
2022-11-16T13:39:06.235Z,990
2022-11-16T13:40:23.228Z,990
2022-11-16T13:41:40.181Z,990
2022-11-16T13:42:57.317Z,990
2022-11-16T13:44:14.188Z,990
2022-11-16T13:45:31.246Z,990
2022-11-16T13:46:55.623Z,990
2022-11-16T13:48:05.196Z,990
2022-11-16T13:49:22.252Z,990
2022-11-16T13:50:39.274Z,990
2022-11-16T13:51:56.215Z,990
2022-11-16T13:54:03.992Z,990
2022-11-16T13:54:46.764Z,990
2022-11-16T13:55:47.260Z,990
2022-11-16T13:57:04.276Z,990
2022-11-16T13:58:21.764Z,990
2022-11-16T13:59:38.221Z,990
2022-11-16T14:00:55.302Z,990
2022-11-16T14:02:12.255Z,990
2022-11-16T14:03:29.227Z,990
2022-11-16T14:04:46.220Z,990
2022-11-16T14:06:03.260Z,990
2022-11-16T14:07:20.303Z,990
2022-11-16T14:08:37.226Z,990.1
2022-11-16T14:09:54.279Z,990.1
2022-11-16T14:11:11.235Z,990.1
2022-11-16T14:12:28.233Z,990
2022-11-16T14:13:45.423Z,990
2022-11-16T14:15:03.881Z,990
2022-11-16T14:16:19.286Z,990
2022-11-16T14:17:36.239Z,990
2022-11-16T14:18:53.241Z,990
2022-11-16T14:20:10.393Z,990
2022-11-16T14:21:27.414Z,990
2022-11-16T14:22:44.280Z,989.9
2022-11-16T14:24:01.269Z,989.9
2022-11-16T14:25:18.476Z,990
2022-11-16T14:26:35.298Z,990
2022-11-16T14:27:52.266Z,990
2022-11-16T14:29:09.300Z,990
2022-11-16T14:30:26.500Z,990
2022-11-16T14:31:43.395Z,990
2022-11-16T14:33:00.262Z,990
2022-11-16T14:34:17.273Z,990
2022-11-16T14:35:34.325Z,990
2022-11-16T14:36:51.320Z,989.9
2022-11-16T14:38:08.286Z,989.9
2022-11-16T14:39:25.326Z,989.9
2022-11-16T14:40:42.271Z,989.9
2022-11-16T14:41:59.313Z,989.9
2022-11-16T14:43:17.367Z,989.9
2022-11-16T14:44:33.410Z,989.9
2022-11-16T14:45:50.286Z,989.9
2022-11-16T14:47:07.320Z,989.9
2022-11-16T14:48:24.329Z,990
2022-11-16T14:49:41.284Z,990
2022-11-16T14:50:58.322Z,990
2022-11-16T14:52:15.307Z,990
2022-11-16T14:53:32.475Z,990
2022-11-16T14:54:49.357Z,990
2022-11-16T14:56:06.326Z,990
2022-11-16T14:57:23.475Z,989.9
2022-11-16T14:58:41.029Z,989.9
2022-11-16T14:59:59.640Z,989.9
2022-11-16T15:01:16.604Z,989.9
2022-11-16T15:02:33.603Z,989.9
2022-11-16T15:03:51.936Z,989.9
2022-11-16T15:05:08.327Z,989.9
2022-11-16T15:06:25.332Z,989.9
2022-11-16T15:07:42.553Z,989.8
2022-11-16T15:08:59.310Z,989.8
2022-11-16T15:10:16.386Z,989.8
2022-11-16T15:11:33.309Z,989.8
2022-11-16T15:12:50.362Z,989.8
2022-11-16T15:14:07.300Z,989.7
2022-11-16T15:15:24.511Z,989.8
2022-11-16T15:16:41.321Z,989.7
2022-11-16T15:17:58.366Z,989.7
2022-11-16T15:19:15.340Z,989.7
2022-11-16T15:20:32.351Z,989.7
2022-11-16T15:21:49.341Z,989.7
2022-11-16T15:23:06.383Z,989.7
2022-11-16T15:24:30.282Z,989.7
2022-11-16T15:25:40.374Z,989.7
2022-11-16T15:26:57.334Z,989.7
2022-11-16T15:28:14.417Z,989.8
2022-11-16T15:29:31.340Z,989.8
2022-11-16T15:30:48.507Z,989.8
2022-11-16T15:32:05.341Z,989.8
2022-11-16T15:33:22.404Z,989.8
2022-11-16T15:34:39.439Z,989.8
2022-11-16T15:35:56.390Z,989.8
2022-11-16T15:37:13.394Z,989.8
2022-11-16T15:38:30.352Z,989.8
2022-11-16T15:39:47.455Z,989.8
2022-11-16T15:41:04.368Z,989.8
2022-11-16T15:42:21.355Z,989.8
2022-11-16T15:43:45.350Z,989.8
2022-11-16T15:44:55.388Z,989.7
2022-11-16T15:46:12.483Z,989.8
2022-11-16T15:47:29.368Z,989.7
2022-11-16T15:48:46.417Z,989.8
2022-11-16T15:50:03.424Z,989.8
2022-11-16T15:51:20.411Z,989.8
2022-11-16T15:52:37.369Z,989.8
2022-11-16T15:53:54.399Z,989.8
2022-11-16T15:55:11.437Z,989.8
2022-11-16T15:56:28.385Z,989.8
2022-11-16T15:57:46.614Z,989.9
2022-11-16T15:59:02.378Z,989.9
2022-11-16T16:00:19.386Z,989.8
2022-11-16T16:01:36.567Z,989.9
2022-11-16T16:02:53.438Z,989.8
2022-11-16T16:04:10.380Z,989.8
2022-11-16T16:05:27.384Z,989.8
2022-11-16T16:06:44.396Z,989.8
2022-11-16T16:08:01.468Z,989.8
2022-11-16T16:09:18.387Z,989.8
2022-11-16T16:10:35.397Z,989.8
2022-11-16T16:11:52.442Z,989.8
2022-11-16T16:13:09.401Z,989.8
2022-11-16T16:14:26.569Z,989.7
2022-11-16T16:15:43.516Z,989.8
2022-11-16T16:17:00.628Z,989.8
2022-11-16T16:18:17.413Z,989.8
2022-11-16T16:19:34.426Z,989.8
2022-11-16T16:20:51.490Z,989.8
2022-11-16T16:22:08.427Z,989.8
2022-11-16T16:23:25.410Z,989.8
2022-11-16T16:24:42.464Z,989.8
2022-11-16T16:25:59.444Z,989.7
2022-11-16T16:27:16.428Z,989.8
2022-11-16T16:28:33.619Z,989.8
2022-11-16T16:29:50.426Z,989.7
2022-11-16T16:31:07.471Z,989.7
2022-11-16T16:32:24.705Z,989.7
2022-11-16T16:33:41.434Z,989.7
2022-11-16T16:34:58.429Z,989.7
2022-11-16T16:36:15.463Z,989.7
2022-11-16T16:37:32.445Z,989.7
2022-11-16T16:38:49.512Z,989.7
2022-11-16T16:40:06.647Z,989.7
2022-11-16T16:41:24.637Z,989.7
2022-11-16T16:42:40.472Z,989.7
2022-11-16T16:43:57.546Z,989.7
2022-11-16T16:45:14.453Z,989.7